sensor_id;sensor_type;location;lat;lon;timestamp;pressure;altitude;pressure_sealevel;temperature
77789;BMP280;66980;44.384;0.512;2023-04-15T00:01:06;101204.81;;;19.39
77789;BMP280;66980;44.384;0.512;2023-04-15T00:03:32;101199.63;;;19.36
77789;BMP280;66980;44.384;0.512;2023-04-15T00:05:58;101202.63;;;19.38
77789;BMP280;66980;44.384;0.512;2023-04-15T00:08:24;101210.66;;;19.36
77789;BMP280;66980;44.384;0.512;2023-04-15T00:10:49;101208.63;;;19.36
77789;BMP280;66980;44.384;0.512;2023-04-15T00:13:15;101213.41;;;19.36
77789;BMP280;66980;44.384;0.512;2023-04-15T00:15:40;101225.16;;;19.36
77789;BMP280;66980;44.384;0.512;2023-04-15T00:18:06;101220.94;;;19.35
77789;BMP280;66980;44.384;0.512;2023-04-15T00:20:33;101220.00;;;19.33
77789;BMP280;66980;44.384;0.512;2023-04-15T00:22:59;101224.19;;;19.34
77789;BMP280;66980;44.384;0.512;2023-04-15T00:25:25;101226.25;;;19.33
77789;BMP280;66980;44.384;0.512;2023-04-15T00:27:50;101224.00;;;19.32
77789;BMP280;66980;44.384;0.512;2023-04-15T00:30:16;101224.00;;;19.32
77789;BMP280;66980;44.384;0.512;2023-04-15T00:32:41;101226.03;;;19.31
77789;BMP280;66980;44.384;0.512;2023-04-15T00:35:07;101218.28;;;19.30
77789;BMP280;66980;44.384;0.512;2023-04-15T00:37:33;101214.81;;;19.29
77789;BMP280;66980;44.384;0.512;2023-04-15T00:39:59;101216.59;;;19.27
77789;BMP280;66980;44.384;0.512;2023-04-15T00:42:25;101216.84;;;19.29
77789;BMP280;66980;44.384;0.512;2023-04-15T00:44:52;101210.03;;;19.16
77789;BMP280;66980;44.384;0.512;2023-04-15T00:47:17;101214.59;;;19.27
77789;BMP280;66980;44.384;0.512;2023-04-15T00:49:43;101216.09;;;19.28
77789;BMP280;66980;44.384;0.512;2023-04-15T00:52:09;101218.09;;;19.28
77789;BMP280;66980;44.384;0.512;2023-04-15T00:54:34;101219.34;;;19.27
77789;BMP280;66980;44.384;0.512;2023-04-15T00:57:00;101212.34;;;19.26
77789;BMP280;66980;44.384;0.512;2023-04-15T00:59:26;101215.09;;;19.26
77789;BMP280;66980;44.384;0.512;2023-04-15T01:01:52;101203.69;;;19.21
77789;BMP280;66980;44.384;0.512;2023-04-15T01:04:17;101203.69;;;19.21
77789;BMP280;66980;44.384;0.512;2023-04-15T01:06:42;101213.44;;;19.23
77789;BMP280;66980;44.384;0.512;2023-04-15T01:09:08;101214.91;;;19.24
77789;BMP280;66980;44.384;0.512;2023-04-15T01:11:34;101207.19;;;19.22
77789;BMP280;66980;44.384;0.512;2023-04-15T01:13:59;101207.94;;;19.23
77789;BMP280;66980;44.384;0.512;2023-04-15T01:16:25;101209.00;;;19.19
77789;BMP280;66980;44.384;0.512;2023-04-15T01:18:52;101206.25;;;19.19
77789;BMP280;66980;44.384;0.512;2023-04-15T01:21:18;101198.53;;;19.18
77789;BMP280;66980;44.384;0.512;2023-04-15T01:23:45;101207.00;;;19.20
77789;BMP280;66980;44.384;0.512;2023-04-15T01:26:11;101191.88;;;19.13
77789;BMP280;66980;44.384;0.512;2023-04-15T01:28:37;101197.03;;;19.17
77789;BMP280;66980;44.384;0.512;2023-04-15T01:31:13;101199.78;;;19.17
77789;BMP280;66980;44.384;0.512;2023-04-15T01:33:40;101188.03;;;19.16
77789;BMP280;66980;44.384;0.512;2023-04-15T01:36:07;101195.56;;;19.16
77789;BMP280;66980;44.384;0.512;2023-04-15T01:38:34;101207.84;;;19.15
77789;BMP280;66980;44.384;0.512;2023-04-15T01:41:00;101206.56;;;19.16
77789;BMP280;66980;44.384;0.512;2023-04-15T01:43:26;101208.38;;;19.13
77789;BMP280;66980;44.384;0.512;2023-04-15T01:45:52;101215.88;;;19.13
77789;BMP280;66980;44.384;0.512;2023-04-15T01:48:18;101212.38;;;19.12
77789;BMP280;66980;44.384;0.512;2023-04-15T01:50:43;101222.66;;;19.12
77789;BMP280;66980;44.384;0.512;2023-04-15T01:53:09;101221.91;;;19.11
77789;BMP280;66980;44.384;0.512;2023-04-15T01:55:35;101223.19;;;19.10
77789;BMP280;66980;44.384;0.512;2023-04-15T01:58:01;101227.41;;;19.11
77789;BMP280;66980;44.384;0.512;2023-04-15T02:00:27;101231.97;;;19.09
77789;BMP280;66980;44.384;0.512;2023-04-15T02:02:52;101228.47;;;19.08
77789;BMP280;66980;44.384;0.512;2023-04-15T02:05:18;101231.22;;;19.08
77789;BMP280;66980;44.384;0.512;2023-04-15T02:07:44;101222.78;;;19.06
77789;BMP280;66980;44.384;0.512;2023-04-15T02:10:10;101224.78;;;19.06
77789;BMP280;66980;44.384;0.512;2023-04-15T02:12:37;101236.31;;;19.04
77789;BMP280;66980;44.384;0.512;2023-04-15T02:15:03;101244.78;;;19.06
77789;BMP280;66980;44.384;0.512;2023-04-15T02:17:28;101238.53;;;19.06
77789;BMP280;66980;44.384;0.512;2023-04-15T02:19:55;101246.78;;;19.06
77789;BMP280;66980;44.384;0.512;2023-04-15T02:22:21;101248.81;;;19.05
77789;BMP280;66980;44.384;0.512;2023-04-15T02:24:46;101251.88;;;19.02
77789;BMP280;66980;44.384;0.512;2023-04-15T02:27:15;101245.06;;;19.03
77789;BMP280;66980;44.384;0.512;2023-04-15T02:29:42;101253.31;;;19.03
77789;BMP280;66980;44.384;0.512;2023-04-15T02:32:08;101249.13;;;19.02
77789;BMP280;66980;44.384;0.512;2023-04-15T02:34:33;101258.81;;;19.03
77789;BMP280;66980;44.384;0.512;2023-04-15T02:36:59;101262.88;;;19.02
77789;BMP280;66980;44.384;0.512;2023-04-15T02:39:25;101275.13;;;19.01
77789;BMP280;66980;44.384;0.512;2023-04-15T02:41:51;101269.63;;;19.01
77789;BMP280;66980;44.384;0.512;2023-04-15T02:44:17;101270.91;;;19.00
77789;BMP280;66980;44.384;0.512;2023-04-15T02:46:46;101274.94;;;18.99
77789;BMP280;66980;44.384;0.512;2023-04-15T02:49:15;101279.66;;;18.98
77789;BMP280;66980;44.384;0.512;2023-04-15T02:51:40;101277.50;;;18.97
77789;BMP280;66980;44.384;0.512;2023-04-15T02:54:06;101273.22;;;18.95
77789;BMP280;66980;44.384;0.512;2023-04-15T02:56:32;101285.75;;;18.97
77789;BMP280;66980;44.384;0.512;2023-04-15T02:58:58;101291.25;;;18.97
77789;BMP280;66980;44.384;0.512;2023-04-15T03:01:23;101276.50;;;18.94
77789;BMP280;66980;44.384;0.512;2023-04-15T03:03:50;101282.75;;;18.94
77789;BMP280;66980;44.384;0.512;2023-04-15T03:06:15;101282.75;;;18.94
77789;BMP280;66980;44.384;0.512;2023-04-15T03:08:41;101293.00;;;18.94
77789;BMP280;66980;44.384;0.512;2023-04-15T03:11:06;101289.00;;;18.95
77789;BMP280;66980;44.384;0.512;2023-04-15T03:13:32;101282.75;;;18.94
77789;BMP280;66980;44.384;0.512;2023-04-15T03:15:58;101285.31;;;18.92
77789;BMP280;66980;44.384;0.512;2023-04-15T03:18:23;101288.78;;;18.93
77789;BMP280;66980;44.384;0.512;2023-04-15T03:20:49;101285.31;;;18.92
77789;BMP280;66980;44.384;0.512;2023-04-15T03:23:14;101297.03;;;18.93
77789;BMP280;66980;44.384;0.512;2023-04-15T03:25:40;101293.34;;;18.90
77789;BMP280;66980;44.384;0.512;2023-04-15T03:28:06;101299.06;;;18.92
77789;BMP280;66980;44.384;0.512;2023-04-15T03:30:31;101302.34;;;18.91
77789;BMP280;66980;44.384;0.512;2023-04-15T03:32:57;101307.09;;;18.90
77789;BMP280;66980;44.384;0.512;2023-04-15T03:35:22;101307.84;;;18.91
77789;BMP280;66980;44.384;0.512;2023-04-15T03:37:48;101297.84;;;18.88
77789;BMP280;66980;44.384;0.512;2023-04-15T03:40:13;101311.09;;;18.89
77789;BMP280;66980;44.384;0.512;2023-04-15T03:42:39;101307.59;;;18.89
77789;BMP280;66980;44.384;0.512;2023-04-15T03:45:05;101323.38;;;18.88
77789;BMP280;66980;44.384;0.512;2023-04-15T03:47:31;101306.88;;;18.88
77789;BMP280;66980;44.384;0.512;2023-04-15T03:49:57;101313.63;;;18.87
77789;BMP280;66980;44.384;0.512;2023-04-15T03:52:22;101312.38;;;18.88
77789;BMP280;66980;44.384;0.512;2023-04-15T03:54:48;101316.66;;;18.84
77789;BMP280;66980;44.384;0.512;2023-04-15T03:57:13;101319.66;;;18.86
77789;BMP280;66980;44.384;0.512;2023-04-15T03:59:39;101318.19;;;18.85
77789;BMP280;66980;44.384;0.512;2023-04-15T04:02:05;101326.66;;;18.87
77789;BMP280;66980;44.384;0.512;2023-04-15T04:04:31;101320.94;;;18.85
77789;BMP280;66980;44.384;0.512;2023-04-15T04:06:58;101323.69;;;18.85
77789;BMP280;66980;44.384;0.512;2023-04-15T04:09:25;101323.69;;;18.85
77789;BMP280;66980;44.384;0.512;2023-04-15T04:11:50;101331.72;;;18.83
77789;BMP280;66980;44.384;0.512;2023-04-15T04:14:16;101337.97;;;18.83
77789;BMP280;66980;44.384;0.512;2023-04-15T04:16:41;101345.47;;;18.83
77789;BMP280;66980;44.384;0.512;2023-04-15T04:19:07;101350.97;;;18.83
77789;BMP280;66980;44.384;0.512;2023-04-15T04:21:32;101356.56;;;18.77
77789;BMP280;66980;44.384;0.512;2023-04-15T04:23:58;101349.66;;;18.70
77789;BMP280;66980;44.384;0.512;2023-04-15T04:26:24;101371.50;;;18.82
77789;BMP280;66980;44.384;0.512;2023-04-15T04:28:50;101355.31;;;18.78
77789;BMP280;66980;44.384;0.512;2023-04-15T04:31:15;101365.56;;;18.78
77789;BMP280;66980;44.384;0.512;2023-04-15T04:33:41;101346.69;;;18.68
77789;BMP280;66980;44.384;0.512;2023-04-15T04:36:06;101366.81;;;18.77
77789;BMP280;66980;44.384;0.512;2023-04-15T04:38:32;101369.34;;;18.75
77789;BMP280;66980;44.384;0.512;2023-04-15T04:40:57;101377.53;;;18.80
77789;BMP280;66980;44.384;0.512;2023-04-15T04:43:23;101380.81;;;18.79
77789;BMP280;66980;44.384;0.512;2023-04-15T04:45:48;101379.53;;;18.80
77789;BMP280;66980;44.384;0.512;2023-04-15T04:48:14;101386.31;;;18.79
77789;BMP280;66980;44.384;0.512;2023-04-15T04:50:39;101389.25;;;18.81
77789;BMP280;66980;44.384;0.512;2023-04-15T04:53:05;101391.28;;;18.80
77789;BMP280;66980;44.384;0.512;2023-04-15T04:55:30;101388.75;;;18.82
77789;BMP280;66980;44.384;0.512;2023-04-15T04:57:56;101399.75;;;18.82
77789;BMP280;66980;44.384;0.512;2023-04-15T05:00:21;101394.25;;;18.82
77789;BMP280;66980;44.384;0.512;2023-04-15T05:02:47;101401.22;;;18.83
77789;BMP280;66980;44.384;0.512;2023-04-15T05:05:12;101400.50;;;18.83
77789;BMP280;66980;44.384;0.512;2023-04-15T05:07:38;101402.50;;;18.82
77789;BMP280;66980;44.384;0.512;2023-04-15T05:10:04;101412.00;;;18.81
77789;BMP280;66980;44.384;0.512;2023-04-15T05:12:30;101409.78;;;18.80
77789;BMP280;66980;44.384;0.512;2023-04-15T05:14:56;101390.91;;;18.70
77789;BMP280;66980;44.384;0.512;2023-04-15T05:17:22;101388.16;;;18.70
77789;BMP280;66980;44.384;0.512;2023-04-15T05:19:47;101414.38;;;18.90
77789;BMP280;66980;44.384;0.512;2023-04-15T05:22:13;101417.72;;;18.83
77789;BMP280;66980;44.384;0.512;2023-04-15T05:24:38;101428.00;;;18.83
77789;BMP280;66980;44.384;0.512;2023-04-15T05:27:04;101426.81;;;18.78
77789;BMP280;66980;44.384;0.512;2023-04-15T05:29:29;101431.78;;;18.80
77789;BMP280;66980;44.384;0.512;2023-04-15T05:31:55;101439.59;;;18.76
77789;BMP280;66980;44.384;0.512;2023-04-15T05:34:20;101447.75;;;18.81
77789;BMP280;66980;44.384;0.512;2023-04-15T05:36:46;101441.31;;;18.79
77789;BMP280;66980;44.384;0.512;2023-04-15T05:39:12;101451.03;;;18.80
77789;BMP280;66980;44.384;0.512;2023-04-15T05:41:37;101448.81;;;18.78
77789;BMP280;66980;44.384;0.512;2023-04-15T05:44:03;101454.81;;;18.77
77789;BMP280;66980;44.384;0.512;2023-04-15T05:46:28;101460.34;;;18.77
77789;BMP280;66980;44.384;0.512;2023-04-15T05:48:54;101468.28;;;18.80
77789;BMP280;66980;44.384;0.512;2023-04-15T05:51:20;101473.78;;;18.80
77789;BMP280;66980;44.384;0.512;2023-04-15T05:53:45;101487.78;;;18.82
77789;BMP280;66980;44.384;0.512;2023-04-15T05:56:11;101489.00;;;18.81
77789;BMP280;66980;44.384;0.512;2023-04-15T05:58:37;101495.47;;;18.84
77789;BMP280;66980;44.384;0.512;2023-04-15T06:01:03;101490.97;;;18.86
77789;BMP280;66980;44.384;0.512;2023-04-15T06:03:28;101497.72;;;18.85
77789;BMP280;66980;44.384;0.512;2023-04-15T06:05:54;101496.69;;;18.88
77789;BMP280;66980;44.384;0.512;2023-04-15T06:08:20;101507.59;;;18.94
77789;BMP280;66980;44.384;0.512;2023-04-15T06:10:46;101511.84;;;18.95
77789;BMP280;66980;44.384;0.512;2023-04-15T06:13:11;101496.13;;;18.90
77789;BMP280;66980;44.384;0.512;2023-04-15T06:15:37;101499.03;;;18.98
77789;BMP280;66980;44.384;0.512;2023-04-15T06:18:02;101510.28;;;19.00
77789;BMP280;66980;44.384;0.512;2023-04-15T06:20:28;101511.00;;;19.00
77789;BMP280;66980;44.384;0.512;2023-04-15T06:22:53;101520.53;;;18.99
77789;BMP280;66980;44.384;0.512;2023-04-15T06:25:19;101522.34;;;18.97
77789;BMP280;66980;44.384;0.512;2023-04-15T06:27:45;101519.25;;;19.00
77789;BMP280;66980;44.384;0.512;2023-04-15T06:30:11;101520.09;;;18.95
77789;BMP280;66980;44.384;0.512;2023-04-15T06:32:37;101521.34;;;18.94
77789;BMP280;66980;44.384;0.512;2023-04-15T06:35:02;101536.09;;;18.97
77789;BMP280;66980;44.384;0.512;2023-04-15T06:37:28;101535.53;;;18.98
77789;BMP280;66980;44.384;0.512;2023-04-15T06:39:54;101537.56;;;18.98
77789;BMP280;66980;44.384;0.512;2023-04-15T06:42:19;101546.28;;;19.02
77789;BMP280;66980;44.384;0.512;2023-04-15T06:44:45;101540.78;;;19.02
77789;BMP280;66980;44.384;0.512;2023-04-15T06:47:10;101547.97;;;19.05
77789;BMP280;66980;44.384;0.512;2023-04-15T06:49:39;101544.97;;;19.03
77789;BMP280;66980;44.384;0.512;2023-04-15T06:52:04;101546.47;;;19.04
77789;BMP280;66980;44.384;0.512;2023-04-15T06:54:30;101565.75;;;19.04
77789;BMP280;66980;44.384;0.512;2023-04-15T06:56:55;101566.47;;;19.04
77789;BMP280;66980;44.384;0.512;2023-04-15T06:59:21;101568.19;;;19.07
77789;BMP280;66980;44.384;0.512;2023-04-15T07:01:46;101559.50;;;19.03
77789;BMP280;66980;44.384;0.512;2023-04-15T07:04:11;101578.63;;;19.14
77789;BMP280;66980;44.384;0.512;2023-04-15T07:06:37;101580.84;;;19.16
77789;BMP280;66980;44.384;0.512;2023-04-15T07:09:03;101580.31;;;19.17
77789;BMP280;66980;44.384;0.512;2023-04-15T07:11:29;101580.53;;;19.19
77789;BMP280;66980;44.384;0.512;2023-04-15T07:13:56;101583.94;;;19.26
77789;BMP280;66980;44.384;0.512;2023-04-15T07:16:21;101589.56;;;19.20
77789;BMP280;66980;44.384;0.512;2023-04-15T07:18:47;101598.31;;;19.18
77789;BMP280;66980;44.384;0.512;2023-04-15T07:21:12;101597.88;;;19.14
77789;BMP280;66980;44.384;0.512;2023-04-15T07:23:38;101595.63;;;19.13
77789;BMP280;66980;44.384;0.512;2023-04-15T07:26:03;101607.09;;;19.17
77789;BMP280;66980;44.384;0.512;2023-04-15T07:28:29;101599.94;;;19.08
77789;BMP280;66980;44.384;0.512;2023-04-15T07:30:54;101611.34;;;18.99
77789;BMP280;66980;44.384;0.512;2023-04-15T07:33:21;101611.91;;;18.92
77789;BMP280;66980;44.384;0.512;2023-04-15T07:35:47;101605.94;;;18.88
77789;BMP280;66980;44.384;0.512;2023-04-15T07:38:12;101610.50;;;18.85
77789;BMP280;66980;44.384;0.512;2023-04-15T07:40:38;101608.69;;;18.88
77789;BMP280;66980;44.384;0.512;2023-04-15T07:43:04;101618.44;;;18.89
77789;BMP280;66980;44.384;0.512;2023-04-15T07:45:30;101613.97;;;18.86
77789;BMP280;66980;44.384;0.512;2023-04-15T07:47:56;101633.63;;;18.95
77789;BMP280;66980;44.384;0.512;2023-04-15T07:50:21;101622.13;;;18.97
77789;BMP280;66980;44.384;0.512;2023-04-15T07:52:51;101623.69;;;18.92
77789;BMP280;66980;44.384;0.512;2023-04-15T07:55:17;101628.44;;;18.92
77789;BMP280;66980;44.384;0.512;2023-04-15T07:57:45;101625.53;;;19.03
77789;BMP280;66980;44.384;0.512;2023-04-15T08:00:12;101631.34;;;19.00
77789;BMP280;66980;44.384;0.512;2023-04-15T08:02:38;101628.44;;;18.92
77789;BMP280;66980;44.384;0.512;2023-04-15T08:05:04;101628.81;;;19.02
77789;BMP280;66980;44.384;0.512;2023-04-15T08:07:30;101634.13;;;18.94
77789;BMP280;66980;44.384;0.512;2023-04-15T08:09:55;101623.75;;;18.87
77789;BMP280;66980;44.384;0.512;2023-04-15T08:12:22;101632.94;;;18.89
77789;BMP280;66980;44.384;0.512;2023-04-15T08:14:47;101654.47;;;18.91
77789;BMP280;66980;44.384;0.512;2023-04-15T08:17:13;101646.56;;;18.82
77789;BMP280;66980;44.384;0.512;2023-04-15T08:19:39;101647.31;;;18.82
77789;BMP280;66980;44.384;0.512;2023-04-15T08:22:06;101656.97;;;18.89
77789;BMP280;66980;44.384;0.512;2023-04-15T08:24:33;101661.53;;;18.86
77789;BMP280;66980;44.384;0.512;2023-04-15T08:26:59;101662.56;;;18.83
77789;BMP280;66980;44.384;0.512;2023-04-15T08:29:25;101668.56;;;18.82
77789;BMP280;66980;44.384;0.512;2023-04-15T08:31:51;101671.50;;;18.84
77789;BMP280;66980;44.384;0.512;2023-04-15T08:34:18;101670.56;;;18.81
77789;BMP280;66980;44.384;0.512;2023-04-15T08:36:43;101671.81;;;18.80
77789;BMP280;66980;44.384;0.512;2023-04-15T08:39:08;101677.56;;;18.58
77789;BMP280;66980;44.384;0.512;2023-04-15T08:41:53;101684.63;;;18.23
77789;BMP280;66980;44.384;0.512;2023-04-15T08:44:22;101688.56;;;18.28
77789;BMP280;66980;44.384;0.512;2023-04-15T08:46:48;101688.56;;;18.28
77789;BMP280;66980;44.384;0.512;2023-04-15T08:49:14;101688.91;;;18.49
77789;BMP280;66980;44.384;0.512;2023-04-15T08:51:42;101697.63;;;18.53
77789;BMP280;66980;44.384;0.512;2023-04-15T08:54:08;101703.41;;;18.49
77789;BMP280;66980;44.384;0.512;2023-04-15T08:56:34;101700.13;;;18.51
77789;BMP280;66980;44.384;0.512;2023-04-15T08:59:01;101698.41;;;18.47
77789;BMP280;66980;44.384;0.512;2023-04-15T09:01:28;101715.09;;;18.55
77789;BMP280;66980;44.384;0.512;2023-04-15T09:03:55;101715.59;;;18.54
77789;BMP280;66980;44.384;0.512;2023-04-15T09:06:22;101711.81;;;18.57
77789;BMP280;66980;44.384;0.512;2023-04-15T09:08:48;101703.44;;;18.43
77789;BMP280;66980;44.384;0.512;2023-04-15T09:11:16;101716.78;;;18.34
77789;BMP280;66980;44.384;0.512;2023-04-15T09:13:44;101713.88;;;18.20
77789;BMP280;66980;44.384;0.512;2023-04-15T09:16:10;101718.34;;;18.23
77789;BMP280;66980;44.384;0.512;2023-04-15T09:18:37;101717.16;;;18.13
77789;BMP280;66980;44.384;0.512;2023-04-15T09:21:11;101720.16;;;18.15
77789;BMP280;66980;44.384;0.512;2023-04-15T09:23:39;101725.66;;;18.15
77789;BMP280;66980;44.384;0.512;2023-04-15T09:26:05;101713.66;;;18.13
77789;BMP280;66980;44.384;0.512;2023-04-15T09:28:31;101721.59;;;18.22
77789;BMP280;66980;44.384;0.512;2023-04-15T09:31:00;101724.66;;;18.13
77789;BMP280;66980;44.384;0.512;2023-04-15T09:33:28;101724.84;;;18.20
77789;BMP280;66980;44.384;0.512;2023-04-15T09:35:59;101729.63;;;18.20
77789;BMP280;66980;44.384;0.512;2023-04-15T09:38:26;101714.69;;;18.10
77789;BMP280;66980;44.384;0.512;2023-04-15T09:40:51;101722.22;;;18.04
77789;BMP280;66980;44.384;0.512;2023-04-15T09:43:17;101721.91;;;17.77
77789;BMP280;66980;44.384;0.512;2023-04-15T09:45:51;101726.41;;;17.74
77789;BMP280;66980;44.384;0.512;2023-04-15T09:48:24;101721.72;;;17.64
77789;BMP280;66980;44.384;0.512;2023-04-15T09:50:58;101727.34;;;17.24
77789;BMP280;66980;44.384;0.512;2023-04-15T09:53:25;101725.75;;;17.57
77789;BMP280;66980;44.384;0.512;2023-04-15T09:55:53;101736.63;;;17.74
77789;BMP280;66980;44.384;0.512;2023-04-15T09:58:24;101756.53;;;17.91
77789;BMP280;66980;44.384;0.512;2023-04-15T10:00:54;101751.00;;;17.97
77789;BMP280;66980;44.384;0.512;2023-04-15T10:03:26;101752.00;;;18.00
77789;BMP280;66980;44.384;0.512;2023-04-15T10:05:53;101759.47;;;17.99
77789;BMP280;66980;44.384;0.512;2023-04-15T10:08:22;101757.75;;;17.96
77789;BMP280;66980;44.384;0.512;2023-04-15T10:10:49;101762.22;;;17.99
77789;BMP280;66980;44.384;0.512;2023-04-15T10:13:18;101769.47;;;18.02
77789;BMP280;66980;44.384;0.512;2023-04-15T10:15:49;101768.00;;;17.95
77789;BMP280;66980;44.384;0.512;2023-04-15T10:18:18;101771.03;;;17.92
77789;BMP280;66980;44.384;0.512;2023-04-15T10:20:45;101757.78;;;17.90
77789;BMP280;66980;44.384;0.512;2023-04-15T10:23:12;101743.28;;;17.95
77789;BMP280;66980;44.384;0.512;2023-04-15T10:25:38;101741.22;;;18.02
77789;BMP280;66980;44.384;0.512;2023-04-15T10:28:05;101750.28;;;17.91
77789;BMP280;66980;44.384;0.512;2023-04-15T10:30:32;101749.09;;;17.22
77789;BMP280;66980;44.384;0.512;2023-04-15T10:32:59;101758.16;;;17.59
77789;BMP280;66980;44.384;0.512;2023-04-15T10:35:25;101748.31;;;17.86
77789;BMP280;66980;44.384;0.512;2023-04-15T10:37:51;101758.38;;;18.13
77789;BMP280;66980;44.384;0.512;2023-04-15T10:42:50;101755.66;;;18.43
77789;BMP280;66980;44.384;0.512;2023-04-15T10:45:16;101740.16;;;18.46
77789;BMP280;66980;44.384;0.512;2023-04-15T10:47:43;101755.28;;;18.58
77789;BMP280;66980;44.384;0.512;2023-04-15T10:50:08;101737.56;;;18.59
77789;BMP280;66980;44.384;0.512;2023-04-15T10:52:34;101744.72;;;18.68
77789;BMP280;66980;44.384;0.512;2023-04-15T10:55:12;101750.06;;;18.85
77789;BMP280;66980;44.384;0.512;2023-04-15T10:57:41;101742.25;;;18.89
77789;BMP280;66980;44.384;0.512;2023-04-15T11:05:10;101748.59;;;19.03
77789;BMP280;66980;44.384;0.512;2023-04-15T11:13:01;101749.75;;;19.13
77789;BMP280;66980;44.384;0.512;2023-04-15T11:17:54;101754.72;;;19.20
77789;BMP280;66980;44.384;0.512;2023-04-15T11:20:21;101751.34;;;19.27
77789;BMP280;66980;44.384;0.512;2023-04-15T11:22:51;101747.41;;;19.23
77789;BMP280;66980;44.384;0.512;2023-04-15T11:25:24;101750.16;;;19.23
77789;BMP280;66980;44.384;0.512;2023-04-15T11:27:50;101749.47;;;19.16
77789;BMP280;66980;44.384;0.512;2023-04-15T11:30:27;101759.44;;;19.19
77789;BMP280;66980;44.384;0.512;2023-04-15T11:32:56;101763.63;;;19.26
77789;BMP280;66980;44.384;0.512;2023-04-15T11:35:22;101748.16;;;19.23
77789;BMP280;66980;44.384;0.512;2023-04-15T11:37:48;101754.06;;;19.33
77789;BMP280;66980;44.384;0.512;2023-04-15T11:40:15;101742.72;;;19.36
77789;BMP280;66980;44.384;0.512;2023-04-15T11:42:44;101734.91;;;19.40
77789;BMP280;66980;44.384;0.512;2023-04-15T11:45:14;101747.63;;;19.43
77789;BMP280;66980;44.384;0.512;2023-04-15T11:47:41;101746.16;;;19.42
77789;BMP280;66980;44.384;0.512;2023-04-15T11:50:20;101750.25;;;19.36
77789;BMP280;66980;44.384;0.512;2023-04-15T11:52:57;101753.72;;;19.36
77789;BMP280;66980;44.384;0.512;2023-04-15T11:55:23;101751.75;;;19.37
77789;BMP280;66980;44.384;0.512;2023-04-15T11:57:50;101751.75;;;19.37
77789;BMP280;66980;44.384;0.512;2023-04-15T12:00:16;101745.34;;;19.29
77789;BMP280;66980;44.384;0.512;2023-04-15T12:02:42;101740.03;;;19.31
77789;BMP280;66980;44.384;0.512;2023-04-15T12:05:08;101755.25;;;19.13
77789;BMP280;66980;44.384;0.512;2023-04-15T12:07:59;101755.25;;;19.13
77789;BMP280;66980;44.384;0.512;2023-04-15T12:10:24;101755.44;;;18.96
77789;BMP280;66980;44.384;0.512;2023-04-15T12:12:51;101752.06;;;18.84
77789;BMP280;66980;44.384;0.512;2023-04-15T12:15:20;101770.78;;;18.61
77789;BMP280;66980;44.384;0.512;2023-04-15T12:17:46;101758.22;;;18.66
77789;BMP280;66980;44.384;0.512;2023-04-15T12:20:12;101759.63;;;18.78
77789;BMP280;66980;44.384;0.512;2023-04-15T12:22:38;101775.06;;;18.87
77789;BMP280;66980;44.384;0.512;2023-04-15T12:25:04;101772.34;;;18.81
77789;BMP280;66980;44.384;0.512;2023-04-15T12:27:30;101772.88;;;18.80
77789;BMP280;66980;44.384;0.512;2023-04-15T12:30:03;101757.22;;;18.93
77789;BMP280;66980;44.384;0.512;2023-04-15T12:32:29;101772.72;;;18.97
77789;BMP280;66980;44.384;0.512;2023-04-15T12:34:59;101766.97;;;18.94
77789;BMP280;66980;44.384;0.512;2023-04-15T12:37:25;101773.09;;;19.06
77789;BMP280;66980;44.384;0.512;2023-04-15T12:39:51;101772.69;;;19.21
77789;BMP280;66980;44.384;0.512;2023-04-15T12:42:18;101767.91;;;19.46
77789;BMP280;66980;44.384;0.512;2023-04-15T12:44:45;101779.72;;;19.79
77789;BMP280;66980;44.384;0.512;2023-04-15T12:47:11;101774.19;;;19.98
77789;BMP280;66980;44.384;0.512;2023-04-15T12:49:37;101772.69;;;20.15
77789;BMP280;66980;44.384;0.512;2023-04-15T12:52:04;101766.66;;;20.17
77789;BMP280;66980;44.384;0.512;2023-04-15T12:54:30;101777.34;;;20.20
77789;BMP280;66980;44.384;0.512;2023-04-15T12:56:57;101785.84;;;20.23
77789;BMP280;66980;44.384;0.512;2023-04-15T12:59:22;101779.94;;;20.32
77789;BMP280;66980;44.384;0.512;2023-04-15T13:01:49;101786.88;;;20.38
77789;BMP280;66980;44.384;0.512;2023-04-15T13:04:15;101781.38;;;20.52
77789;BMP280;66980;44.384;0.512;2023-04-15T13:06:41;101782.97;;;20.60
77789;BMP280;66980;44.384;0.512;2023-04-15T13:09:07;101780.13;;;20.66
77789;BMP280;66980;44.384;0.512;2023-04-15T13:11:33;101788.41;;;20.66
77789;BMP280;66980;44.384;0.512;2023-04-15T13:14:04;101764.72;;;20.57
77789;BMP280;66980;44.384;0.512;2023-04-15T13:16:30;101778.22;;;20.61
77789;BMP280;66980;44.384;0.512;2023-04-15T13:18:56;101779.16;;;20.63
77789;BMP280;66980;44.384;0.512;2023-04-15T13:21:22;101777.22;;;20.58
77789;BMP280;66980;44.384;0.512;2023-04-15T13:23:48;101774.56;;;20.39
77789;BMP280;66980;44.384;0.512;2023-04-15T13:26:16;101773.25;;;20.27
77789;BMP280;66980;44.384;0.512;2023-04-15T13:28:42;101775.47;;;20.29
77789;BMP280;66980;44.384;0.512;2023-04-15T13:31:07;101787.06;;;20.40
77789;BMP280;66980;44.384;0.512;2023-04-15T13:33:33;101782.69;;;20.32
77789;BMP280;66980;44.384;0.512;2023-04-15T13:35:58;101794.47;;;20.32
77789;BMP280;66980;44.384;0.512;2023-04-15T13:38:24;101787.59;;;20.39
77789;BMP280;66980;44.384;0.512;2023-04-15T13:40:50;101775.53;;;20.42
77789;BMP280;66980;44.384;0.512;2023-04-15T13:43:15;101783.59;;;20.53
77789;BMP280;66980;44.384;0.512;2023-04-15T13:45:42;101780.75;;;20.59
77789;BMP280;66980;44.384;0.512;2023-04-15T13:48:07;101755.94;;;20.59
77789;BMP280;66980;44.384;0.512;2023-04-15T13:50:33;101787.34;;;20.69
77789;BMP280;66980;44.384;0.512;2023-04-15T13:52:59;101758.47;;;20.57
77789;BMP280;66980;44.384;0.512;2023-04-15T13:55:25;101778.75;;;20.59
77789;BMP280;66980;44.384;0.512;2023-04-15T13:57:50;101789.66;;;20.65
77789;BMP280;66980;44.384;0.512;2023-04-15T14:00:16;101779.16;;;20.63
77789;BMP280;66980;44.384;0.512;2023-04-15T14:02:41;101779.16;;;20.63
77789;BMP280;66980;44.384;0.512;2023-04-15T14:05:07;101760.16;;;20.47
77789;BMP280;66980;44.384;0.512;2023-04-15T14:07:33;101784.03;;;20.57